Time;durP1;ratioP1;P1;durP2;ratioP2;P2;SDS_P1;SDS_P2;PMS_P1;PMS_P2;Temp;Humidity;BMP_temperature;BMP_pressure;BME280_temperature;BME280_humidity;BME280_pressure;Samples;Min_cycle;Max_cycle;Signal;HPM_P1;HPM_P2
2023/01/14 00:01:24;;;;;;;6.90;4.40;;;;;;;-1.30;86.75;99133.08;105194;1261;61348;-24
2023/01/14 00:03:51;;;;;;;8.70;6.50;;;;;;;-0.83;85.87;99128.67;105369;1263;61163;-24
2023/01/14 00:06:20;;;;;;;13.60;8.90;;;;;;;-0.97;85.39;99131.00;105543;1263;76122;-24
2023/01/14 00:08:52;;;;;;;9.80;5.60;;;;;;;-1.31;86.00;99132.25;105294;1264;76895;-24
2023/01/14 00:11:45;;;;;;;7.20;4.60;;;;;;;-1.43;86.87;99138.77;105309;1257;75275;-24
2023/01/14 00:14:05;;;;;;;6.80;4.30;;;;;;;-1.31;87.03;99140.26;105280;1263;62688;-24
2023/01/14 00:16:32;;;;;;;9.20;5.70;;;;;;;-0.89;85.96;99144.35;105464;1257;62829;-24
2023/01/14 00:18:59;;;;;;;6.40;4.70;;;;;;;-0.88;85.25;99141.62;105505;1260;75086;-24
2023/01/14 00:21:26;;;;;;;6.80;4.50;;;;;;;-1.10;85.79;99143.02;105368;1257;75750;-24
2023/01/14 00:23:53;;;;;;;5.40;3.30;;;;;;;-1.24;86.27;99142.95;105429;1257;75282;-24
2023/01/14 00:26:21;;;;;;;8.00;4.40;;;;;;;-1.33;86.77;99142.70;105388;1262;64201;-25
2023/01/14 00:28:49;;;;;;;8.20;4.60;;;;;;;-0.98;86.59;99142.96;105489;1257;61692;-24
2023/01/14 00:31:24;;;;;;;6.60;3.80;;;;;;;-0.73;85.29;99146.60;105358;1258;76392;-24
2023/01/14 00:33:52;;;;;;;8.90;6.50;;;;;;;-0.97;85.43;99150.63;105451;1257;75674;-24
2023/01/14 00:36:21;;;;;;;7.30;4.10;;;;;;;-1.23;85.90;99146.98;105419;1258;74177;-24
2023/01/14 00:38:52;;;;;;;4.30;3.30;;;;;;;-1.36;86.71;99150.30;105030;1260;63793;-25
2023/01/14 00:41:21;;;;;;;5.40;4.20;;;;;;;-1.13;86.79;99152.48;105076;1258;61570;-24
2023/01/14 00:43:50;;;;;;;8.40;3.70;;;;;;;-0.87;86.04;99158.81;105227;1257;76173;-24
2023/01/14 00:46:28;;;;;;;8.70;5.40;;;;;;;-0.91;85.58;99155.33;105248;1264;75706;-24
2023/01/14 00:48:58;;;;;;;6.90;4.40;;;;;;;-1.15;85.75;99146.75;105283;1264;74908;-24
2023/01/14 00:51:25;;;;;;;7.10;4.40;;;;;;;-1.38;86.67;99144.40;105201;1257;61065;-24
2023/01/14 00:53:52;;;;;;;6.00;3.60;;;;;;;-1.08;86.57;99143.80;105447;1262;62774;-24
2023/01/14 00:56:20;;;;;;;7.00;4.90;;;;;;;-0.65;85.31;99147.18;105398;1263;75278;-24
2023/01/14 00:58:47;;;;;;;7.50;4.70;;;;;;;-0.62;84.67;99141.09;105313;1264;75779;-24
2023/01/14 01:01:14;;;;;;;6.90;4.20;;;;;;;-0.84;84.83;99139.95;105501;1260;75220;-24
2023/01/14 01:03:43;;;;;;;9.80;5.50;;;;;;;-1.12;85.59;99135.73;105487;1257;61735;-24
2023/01/14 01:06:11;;;;;;;9.00;5.60;;;;;;;-1.07;86.21;99132.38;105322;1263;62593;-24
2023/01/14 01:08:38;;;;;;;7.40;4.10;;;;;;;-0.47;85.14;99133.77;105555;1260;76313;-24
2023/01/14 01:11:05;;;;;;;7.30;5.10;;;;;;;-0.15;83.61;99135.55;105572;1262;76857;-24
2023/01/14 01:13:33;;;;;;;6.20;4.40;;;;;;;-0.30;83.06;99138.48;105199;1260;75242;-24
2023/01/14 01:16:04;;;;;;;7.90;4.30;;;;;;;-0.56;83.55;99138.02;105121;1265;61255;-24
2023/01/14 01:18:30;;;;;;;6.00;3.70;;;;;;;-0.86;84.22;99135.76;105484;1262;62804;-25
2023/01/14 01:21:04;;;;;;;7.10;5.10;;;;;;;-1.33;85.72;99136.40;105546;1260;73884;-24
2023/01/14 01:23:32;;;;;;;11.00;4.90;;;;;;;-1.15;86.45;99129.37;105219;1258;75873;-24
2023/01/14 01:26:00;;;;;;;7.80;4.70;;;;;;;-0.83;85.25;99134.80;105214;1260;74971;-24
2023/01/14 01:28:27;;;;;;;8.40;4.90;;;;;;;-0.94;85.04;99131.91;104992;1266;61179;-24
2023/01/14 01:31:02;;;;;;;6.50;4.20;;;;;;;-1.25;85.51;99125.94;105379;1256;62919;-24
2023/01/14 01:33:29;;;;;;;11.70;5.90;;;;;;;-1.27;86.27;99130.09;105167;1257;76315;-24
2023/01/14 01:36:04;;;;;;;7.30;4.10;;;;;;;-0.88;85.08;99125.96;105302;1257;76728;-24
2023/01/14 01:38:31;;;;;;;8.00;5.40;;;;;;;-0.77;84.65;99127.10;105369;1263;75122;-24
2023/01/14 01:40:59;;;;;;;10.90;5.30;;;;;;;-0.83;84.45;99126.27;105208;1257;61099;-24
2023/01/14 01:43:28;;;;;;;10.50;6.70;;;;;;;-1.04;84.91;99119.49;105575;1260;62493;-25
2023/01/14 01:45:56;;;;;;;4.10;3.00;;;;;;;-1.28;85.49;99125.19;105225;1258;75331;-24
2023/01/14 01:48:42;;;;;;;9.30;5.60;;;;;;;-0.89;85.54;99122.23;105539;1257;76757;-24
2023/01/14 01:51:13;;;;;;;11.60;6.10;;;;;;;-0.92;84.84;99127.27;105313;1257;73050;-24
2023/01/14 01:53:42;;;;;;;6.50;4.50;;;;;;;-1.00;84.94;99126.35;105302;1265;61315;-24
2023/01/14 01:56:11;;;;;;;9.70;6.20;;;;;;;-1.18;85.11;99128.27;105258;1264;62596;-24
2023/01/14 01:58:38;;;;;;;4.70;3.40;;;;;;;-1.39;85.62;99125.86;105678;1260;75330;-24
2023/01/14 02:01:05;;;;;;;10.70;5.40;;;;;;;-1.09;85.89;99118.42;105672;1254;76808;-24
2023/01/14 02:03:41;;;;;;;8.90;5.40;;;;;;;-0.67;84.38;99116.70;105765;1257;75182;-24
2023/01/14 02:06:08;;;;;;;10.70;6.00;;;;;;;-0.69;83.90;99114.38;105667;1261;61236;-24
2023/01/14 02:08:37;;;;;;;7.00;5.10;;;;;;;-0.92;84.25;99111.25;105361;1254;61454;-24
2023/01/14 02:11:13;;;;;;;6.10;4.10;;;;;;;-1.25;85.17;99114.86;105400;1254;74376;-24
2023/01/14 02:13:52;;;;;;;7.70;4.30;;;;;;;-1.26;86.21;99117.45;105468;1256;76676;-24
2023/01/14 02:16:47;;;;;;;10.90;5.70;;;;;;;-0.91;84.95;99117.36;105293;1259;74139;-24
2023/01/14 02:19:51;;;;;;;6.80;4.50;;;;;;;-1.00;84.66;99112.51;105801;1254;61161;-24
2023/01/14 02:22:47;;;;;;;5.00;3.40;;;;;;;-1.37;86.07;99108.08;105674;1259;63096;-24
2023/01/14 02:25:29;;;;;;;7.00;4.30;;;;;;;-1.43;86.91;99111.50;105515;1257;75084;-24
2023/01/14 02:28:23;;;;;;;7.20;4.90;;;;;;;-1.02;86.00;99110.38;105627;1260;75288;-24
2023/01/14 02:30:57;;;;;;;;;;;;;;;-1.04;85.49;99109.06;105652;1254;74189;-24
2023/01/14 02:33:34;;;;;;;8.30;5.30;;;;;;;-1.25;85.85;99110.61;105680;1254;61637;-24
2023/01/14 02:36:06;;;;;;;4.40;3.50;;;;;;;-1.47;86.46;99109.58;105598;1260;62539;-24
2023/01/14 02:38:46;;;;;;;6.30;4.30;;;;;;;-1.28;86.68;99112.41;105647;1254;75995;-24
2023/01/14 02:44:07;;;;;;;8.90;5.30;;;;;;;-0.94;85.91;99120.86;105621;1254;76774;-24
2023/01/14 02:44:15;;;;;;;9.80;6.50;;;;;;;-0.92;85.17;99119.08;105600;1254;73979;-24
2023/01/14 02:46:54;;;;;;;5.90;3.60;;;;;;;-1.15;85.62;99118.12;105661;1254;61058;-24
2023/01/14 02:49:24;;;;;;;6.10;3.80;;;;;;;-1.44;86.14;99125.69;105349;1254;61471;-24
2023/01/14 02:51:52;;;;;;;7.20;4.90;;;;;;;-1.27;86.52;99125.15;105488;1254;76287;-24
2023/01/14 02:54:19;;;;;;;8.60;5.50;;;;;;;-0.94;85.66;99128.53;105797;1254;76877;-24
2023/01/14 02:56:46;;;;;;;8.00;5.50;;;;;;;-0.92;85.11;99124.73;105751;1254;74782;-24
2023/01/14 02:59:33;;;;;;;8.60;5.10;;;;;;;-1.23;85.56;99122.81;105765;1254;61155;-24
2023/01/14 03:02:18;;;;;;;12.30;6.00;;;;;;;-1.38;86.02;99127.38;105696;1258;61756;-24
2023/01/14 03:05:02;;;;;;;4.30;3.90;;;;;;;-1.28;86.62;99121.44;105721;1260;76023;-24
2023/01/14 03:07:33;;;;;;;7.70;4.60;;;;;;;-0.91;85.39;99126.20;105811;1254;75666;-24
2023/01/14 03:10:21;;;;;;;9.40;5.60;;;;;;;-0.81;84.80;99125.19;105516;1257;74955;-24
2023/01/14 03:13:07;;;;;;;4.90;3.80;;;;;;;-1.04;84.87;99126.13;105586;1257;62098;-24
2023/01/14 03:15:41;;;;;;;7.30;4.20;;;;;;;-1.28;85.35;99126.04;105657;1260;62493;-24
2023/01/14 03:18:08;;;;;;;;;;;;;;;-1.23;85.90;99126.21;105585;1261;75500;-24
2023/01/14 03:20:40;;;;;;;6.70;4.20;;;;;;;-0.81;85.16;99124.18;105680;1254;77323;-24
2023/01/14 03:23:09;;;;;;;6.40;3.70;;;;;;;-0.77;84.17;99128.30;105663;1254;74188;-24
2023/01/14 03:25:39;;;;;;;8.40;4.60;;;;;;;-0.93;84.43;99132.42;105627;1254;61158;-24
2023/01/14 03:28:17;;;;;;;5.30;4.00;;;;;;;-1.24;85.23;99133.23;105699;1254;61796;-24
2023/01/14 03:30:48;;;;;;;7.60;5.70;;;;;;;-1.37;86.16;99132.63;105630;1254;76314;-24
2023/01/14 03:33:37;;;;;;;10.30;5.50;;;;;;;-1.06;85.84;99138.95;105538;1259;75775;-24
2023/01/14 03:36:05;;;;;;;7.70;4.40;;;;;;;-0.97;85.26;99141.06;105436;1254;75248;-24
2023/01/14 03:38:40;;;;;;;5.80;4.10;;;;;;;-1.00;85.20;99141.15;105680;1257;61967;-24
2023/01/14 03:41:08;;;;;;;5.80;4.00;;;;;;;-1.26;85.09;99142.65;105689;1260;62384;-24
2023/01/14 03:44:02;;;;;;;5.60;3.30;;;;;;;-1.31;86.06;99149.28;105518;1258;73967;-24
2023/01/14 03:46:29;;;;;;;3.10;2.30;;;;;;;-0.69;84.79;99150.89;105529;1254;75716;-25
2023/01/14 03:48:56;;;;;;;4.90;3.00;;;;;;;-0.83;84.15;99148.80;105608;1255;73781;-24
2023/01/14 03:51:46;;;;;;;5.50;3.70;;;;;;;-0.96;84.82;99150.74;105741;1253;61940;-24
2023/01/14 03:54:38;;;;;;;7.60;5.10;;;;;;;-1.31;85.31;99145.72;105692;1254;63105;-24
2023/01/14 03:57:33;;;;;;;3.40;2.60;;;;;;;-1.52;86.70;99149.76;105757;1258;76688;-24
2023/01/14 04:00:26;;;;;;;5.40;2.70;;;;;;;-1.13;86.07;99154.70;105628;1254;76573;-24
2023/01/14 04:02:54;;;;;;;7.40;4.70;;;;;;;-1.10;85.94;99163.30;105457;1259;75071;-24
2023/01/14 04:05:21;;;;;;;7.50;4.60;;;;;;;-1.21;85.99;99163.99;105559;1254;62069;-24
2023/01/14 04:07:49;;;;;;;6.30;3.60;;;;;;;-1.39;86.06;99168.09;105566;1254;62929;-24
2023/01/14 04:10:16;;;;;;;7.00;4.30;;;;;;;-1.51;87.10;99171.52;105575;1254;76290;-24
2023/01/14 04:15:29;;;;;;;4.80;2.70;;;;;;;-0.81;84.95;99176.34;105720;1257;74133;-24
2023/01/14 04:17:56;;;;;;;5.90;3.50;;;;;;;-0.86;84.69;99178.55;105559;1257;61838;-24
2023/01/14 04:20:23;;;;;;;6.80;3.40;;;;;;;-1.07;85.12;99180.24;105469;1254;61524;-24
2023/01/14 04:22:50;;;;;;;4.40;2.80;;;;;;;-1.35;86.01;99177.35;105466;1259;75211;-24
2023/01/14 04:25:17;;;;;;;8.50;4.80;;;;;;;-1.11;86.13;99177.11;105402;1254;75841;-24
2023/01/14 04:27:44;;;;;;;6.00;3.20;;;;;;;-0.77;84.86;99179.60;105432;1258;74917;-24
2023/01/14 04:30:11;;;;;;;9.10;5.70;;;;;;;-0.74;84.39;99183.10;105644;1257;61264;-25
2023/01/14 04:32:38;;;;;;;4.80;3.60;;;;;;;-0.94;84.69;99185.82;105663;1254;61702;-24
2023/01/14 04:35:06;;;;;;;6.00;4.00;;;;;;;-1.28;85.81;99183.95;105665;1259;76061;-24
2023/01/14 04:37:33;;;;;;;4.40;3.40;;;;;;;-1.46;86.81;99188.07;105701;1259;74794;-24
2023/01/14 04:40:00;;;;;;;5.70;4.20;;;;;;;-1.14;86.53;99185.59;105564;1254;74299;-24
2023/01/14 04:42:27;;;;;;;8.50;4.70;;;;;;;-0.87;85.87;99191.70;105720;1258;63098;-24
2023/01/14 04:45:01;;;;;;;6.00;4.20;;;;;;;-0.97;85.37;99192.19;105578;1254;61633;-24
2023/01/14 04:47:28;;;;;;;8.10;4.70;;;;;;;-1.23;86.15;99195.05;105573;1254;76365;-24
2023/01/14 04:49:55;;;;;;;7.70;4.20;;;;;;;-1.32;86.65;99193.10;105630;1253;75748;-24
2023/01/14 04:52:26;;;;;;;7.50;4.40;;;;;;;-1.03;86.67;99194.44;105571;1254;75208;-24
2023/01/14 04:54:53;;;;;;;9.10;4.70;;;;;;;-0.64;85.17;99196.77;105621;1253;61477;-24
2023/01/14 04:57:20;;;;;;;4.50;3.00;;;;;;;-0.59;84.36;99197.98;105651;1257;62874;-24
2023/01/14 04:59:47;;;;;;;8.30;4.50;;;;;;;-0.81;84.59;99197.81;105625;1259;76272;-24
2023/01/14 05:02:13;;;;;;;4.60;3.10;;;;;;;-1.09;85.24;99193.23;105481;1254;75874;-24
2023/01/14 05:04:41;;;;;;;6.70;4.10;;;;;;;-1.13;85.78;99192.00;105645;1259;75185;-24
2023/01/14 05:07:08;;;;;;;5.20;3.10;;;;;;;-0.70;85.10;99193.36;105733;1257;62290;-24
2023/01/14 05:09:35;;;;;;;5.30;3.30;;;;;;;-0.55;84.45;99189.83;105664;1259;62507;-24
2023/01/14 05:12:02;;;;;;;9.30;4.70;;;;;;;-0.71;84.16;99193.06;105506;1254;75224;-24
2023/01/14 05:14:29;;;;;;;7.50;4.50;;;;;;;-0.91;84.60;99195.94;105677;1254;75698;-24
2023/01/14 05:16:56;;;;;;;9.00;4.90;;;;;;;-1.20;85.60;99198.85;105667;1254;73854;-24
2023/01/14 05:19:23;;;;;;;4.10;2.90;;;;;;;-1.10;85.96;99202.13;105660;1253;63375;-24
2023/01/14 05:21:50;;;;;;;10.80;3.80;;;;;;;-0.57;84.88;99198.73;105537;1254;61757;-24
2023/01/14 05:24:17;;;;;;;7.00;4.40;;;;;;;-0.45;84.06;99200.22;105745;1254;76364;-24
2023/01/14 05:26:44;;;;;;;6.50;3.70;;;;;;;-0.62;83.95;99200.43;105731;1254;76774;-24
2023/01/14 05:29:11;;;;;;;9.60;5.40;;;;;;;-0.85;84.41;99205.45;105515;1253;75175;-24
2023/01/14 05:31:38;;;;;;;5.60;3.60;;;;;;;-1.05;85.24;99201.50;105573;1254;61126;-24
2023/01/14 05:34:05;;;;;;;6.90;4.50;;;;;;;-0.86;85.37;99201.56;105453;1259;62739;-24
2023/01/14 05:36:32;;;;;;;13.60;5.90;;;;;;;-0.40;84.14;99195.45;105768;1254;76502;-24
2023/01/14 05:38:59;;;;;;;6.20;4.10;;;;;;;-0.45;83.48;99192.91;105688;1259;76998;-24
2023/01/14 05:41:26;;;;;;;9.90;5.60;;;;;;;-0.61;83.83;99191.05;105747;1254;75136;-24
2023/01/14 05:46:39;;;;;;;9.30;4.70;;;;;;;-1.02;85.24;99186.38;105720;1254;61501;-24
2023/01/14 05:49:06;;;;;;;6.50;4.40;;;;;;;-0.68;85.00;99194.86;105682;1259;75082;-24
2023/01/14 05:51:33;;;;;;;9.40;5.40;;;;;;;-0.43;84.02;99193.84;105685;1258;75689;-24
2023/01/14 05:54:00;;;;;;;6.20;4.40;;;;;;;-0.69;84.21;99197.94;105490;1255;75210;-24
2023/01/14 05:56:26;;;;;;;9.10;5.60;;;;;;;-0.80;84.48;99196.58;105648;1259;62250;-24
2023/01/14 05:58:54;;;;;;;8.90;5.00;;;;;;;-1.10;85.55;99197.04;105681;1254;61702;-24
2023/01/14 06:06:54;;;;;;;6.30;4.00;;;;;;;-0.64;84.75;99204.59;105492;1254;75186;-24
2023/01/14 06:09:21;;;;;;;11.30;6.50;;;;;;;-0.92;85.11;99203.46;105708;1254;61160;-24
2023/01/14 06:12:01;;;;;;;10.50;5.50;;;;;;;-1.10;86.18;99201.98;105646;1259;62396;-24
2023/01/14 06:14:32;;;;;;;8.40;5.00;;;;;;;-0.73;85.73;99207.98;105803;1254;75998;-24
2023/01/14 06:17:02;;;;;;;10.50;5.20;;;;;;;-0.66;85.03;99199.38;105385;1254;76739;-24
2023/01/14 06:19:29;;;;;;;8.50;5.70;;;;;;;-0.81;85.29;99202.92;105393;1257;75205;-24
2023/01/14 06:21:56;;;;;;;7.80;5.20;;;;;;;-1.00;85.54;99195.70;105475;1254;61433;-24
2023/01/14 06:24:23;;;;;;;9.40;5.70;;;;;;;-0.87;86.16;99200.08;105541;1254;62499;-24
2023/01/14 06:26:51;;;;;;;5.40;4.00;;;;;;;-0.54;84.99;99198.31;105644;1259;76015;-24
2023/01/14 06:29:18;;;;;;;10.50;5.60;;;;;;;-0.46;84.38;99200.61;105666;1259;76183;-24
2023/01/14 06:31:45;;;;;;;9.60;5.40;;;;;;;-0.71;84.61;99204.16;105505;1254;74166;-24
2023/01/14 06:34:12;;;;;;;8.50;5.20;;;;;;;-1.00;85.52;99205.91;105628;1259;61147;-24
2023/01/14 06:36:39;;;;;;;7.50;4.50;;;;;;;-0.77;85.81;99212.86;105585;1254;61455;-24
2023/01/14 06:39:06;;;;;;;7.60;5.00;;;;;;;-0.31;84.53;99208.95;105752;1258;75255;-24
2023/01/14 06:41:33;;;;;;;7.60;5.00;;;;;;;-0.25;83.56;99207.38;105784;1254;76752;-24
2023/01/14 06:44:02;;;;;;;12.40;7.40;;;;;;;-0.52;83.82;99211.02;105486;1256;75117;-24
2023/01/14 06:46:30;;;;;;;12.70;6.90;;;;;;;-0.73;84.48;99208.98;105669;1254;61175;-24
2023/01/14 06:48:57;;;;;;;9.90;5.80;;;;;;;-0.71;85.05;99210.62;105673;1260;62652;-24
2023/01/14 06:51:25;;;;;;;7.80;4.40;;;;;;;-0.15;84.21;99209.46;105787;1254;76321;-24
2023/01/14 06:53:53;;;;;;;10.60;6.10;;;;;;;-0.02;82.96;99207.30;105832;1258;75529;-25
2023/01/14 06:56:20;;;;;;;10.60;6.00;;;;;;;-0.17;82.91;99211.06;105515;1254;73387;-24
2023/01/14 06:58:48;;;;;;;13.80;6.60;;;;;;;-0.38;83.26;99210.92;105609;1259;61956;-24
2023/01/14 07:01:15;;;;;;;12.30;6.10;;;;;;;-0.63;84.09;99217.36;105546;1254;61588;-24
2023/01/14 07:03:43;;;;;;;7.30;4.50;;;;;;;-0.48;84.53;99215.17;105555;1259;76133;-24
2023/01/14 07:06:10;;;;;;;18.30;7.10;;;;;;;0.01;83.27;99215.01;105627;1254;76781;-24
2023/01/14 07:08:37;;;;;;;11.70;5.30;;;;;;;0.00;82.40;99217.13;105655;1255;75187;-25
2023/01/14 07:11:04;;;;;;;12.00;6.30;;;;;;;-0.21;82.77;99217.50;105693;1254;61941;-24
2023/01/14 07:13:31;;;;;;;10.00;5.70;;;;;;;-0.59;83.70;99224.58;105631;1254;61471;-24
2023/01/14 07:15:58;;;;;;;10.90;5.10;;;;;;;-0.68;84.40;99225.35;105684;1259;75251;-24
2023/01/14 07:18:26;;;;;;;12.70;6.30;;;;;;;-0.52;84.85;99225.72;105648;1254;75499;-24
2023/01/14 07:20:57;;;;;;;10.90;6.00;;;;;;;0.04;83.59;99226.89;105775;1254;74884;-24
2023/01/14 07:23:24;;;;;;;7.50;4.70;;;;;;;0.10;82.48;99227.86;105283;1254;61752;-24
2023/01/14 07:25:55;;;;;;;8.80;5.20;;;;;;;-0.12;82.76;99226.58;104502;1256;1597215;-24
2023/01/14 07:28:24;;;;;;;10.70;5.30;;;;;;;-0.26;83.23;99234.73;105785;1257;76101;-24
2023/01/14 07:30:52;;;;;;;6.20;3.60;;;;;;;-0.45;83.77;99242.37;105734;1259;76528;-24
2023/01/14 07:33:21;;;;;;;11.60;5.90;;;;;;;-0.34;84.27;99242.53;105554;1259;73995;-24
2023/01/14 07:35:51;;;;;;;9.60;4.80;;;;;;;-0.00;83.08;99242.05;105514;1254;61578;-24
2023/01/14 07:38:20;;;;;;;8.40;5.00;;;;;;;0.10;82.84;99244.41;105726;1254;61821;-24
2023/01/14 07:40:47;;;;;;;10.20;5.70;;;;;;;-0.14;82.91;99242.68;105710;1253;76286;-24
2023/01/14 07:43:14;;;;;;;14.70;7.80;;;;;;;-0.29;83.50;99242.67;105634;1254;75490;-24
2023/01/14 07:45:41;;;;;;;8.00;5.00;;;;;;;-0.41;83.94;99242.93;105563;1254;74994;-24
2023/01/14 07:48:08;;;;;;;9.00;3.80;;;;;;;-0.06;83.94;99241.23;105686;1254;61985;-24
2023/01/14 07:50:35;;;;;;;4.80;3.70;;;;;;;0.27;82.71;99244.00;105716;1254;61488;-24
2023/01/14 07:53:02;;;;;;;13.00;7.20;;;;;;;0.32;82.25;99246.89;105725;1254;76441;-24
2023/01/14 07:55:29;;;;;;;12.60;7.30;;;;;;;0.16;82.37;99247.48;105774;1254;75643;-24
2023/01/14 07:57:57;;;;;;;12.80;7.50;;;;;;;0.05;82.92;99248.71;105766;1260;74984;-24
2023/01/14 08:00:24;;;;;;;10.40;6.00;;;;;;;-0.11;83.46;99246.34;105450;1255;62033;-24
2023/01/14 08:02:51;;;;;;;8.00;4.40;;;;;;;0.03;83.77;99245.89;105588;1254;61163;-24
2023/01/14 08:05:18;;;;;;;9.90;6.10;;;;;;;0.53;82.92;99250.23;105678;1257;74918;-24
2023/01/14 08:07:45;;;;;;;10.10;6.60;;;;;;;0.67;82.08;99250.41;105507;1254;76821;-24
2023/01/14 08:10:13;;;;;;;12.20;6.70;;;;;;;0.54;81.72;99255.16;105588;1259;74227;-24
2023/01/14 08:12:40;;;;;;;10.20;5.50;;;;;;;0.32;82.21;99258.02;105633;1254;62352;-24
2023/01/14 08:15:07;;;;;;;7.90;4.90;;;;;;;0.10;82.78;99261.68;105572;1254;61720;-25
2023/01/14 08:17:34;;;;;;;6.80;3.70;;;;;;;0.13;83.45;99265.34;105516;1259;76302;-24
2023/01/14 08:20:01;;;;;;;9.00;5.90;;;;;;;0.79;82.10;99268.07;105662;1254;76808;-24
2023/01/14 08:22:29;;;;;;;9.20;5.20;;;;;;;1.11;80.77;99268.94;105784;1258;75073;-24
2023/01/14 08:24:56;;;;;;;11.10;6.40;;;;;;;1.02;80.45;99270.64;105804;1254;61973;-24
2023/01/14 08:27:26;;;;;;;6.80;5.00;;;;;;;0.76;80.87;99274.01;105542;1253;61816;-24
2023/01/14 08:29:54;;;;;;;9.40;5.90;;;;;;;0.56;81.51;99277.66;105630;1262;76280;-24
2023/01/14 08:32:22;;;;;;;12.30;6.00;;;;;;;0.18;82.48;99275.71;105673;1254;76552;-24
2023/01/14 08:34:49;;;;;;;12.30;6.90;;;;;;;0.36;83.09;99280.08;105376;1261;73938;-24
2023/01/14 08:37:15;;;;;;;5.30;3.20;;;;;;;0.82;82.27;99278.05;105637;1256;62035;-24
2023/01/14 08:39:42;;;;;;;17.10;6.70;;;;;;;0.95;81.23;99276.38;105640;1254;61106;-24
2023/01/14 08:42:09;;;;;;;10.80;5.80;;;;;;;0.66;81.33;99274.39;105702;1254;74968;-24
2023/01/14 08:44:36;;;;;;;5.80;4.10;;;;;;;0.44;82.18;99282.52;105656;1254;75470;-24
2023/01/14 08:47:03;;;;;;;7.00;4.60;;;;;;;0.24;82.77;99285.44;105801;1254;74132;-24
2023/01/14 08:49:31;;;;;;;13.00;6.90;;;;;;;0.13;83.77;99286.66;105531;1259;63872;-24
2023/01/14 08:51:59;;;;;;;12.70;5.50;;;;;;;0.66;83.34;99289.74;105484;1254;61846;-24
2023/01/14 08:54:26;;;;;;;11.40;6.80;;;;;;;0.88;81.94;99287.04;105507;1254;76306;-24
2023/01/14 08:56:56;;;;;;;4.30;3.10;;;;;;;0.70;81.81;99290.79;105647;1254;76786;-25
2023/01/14 08:59:23;;;;;;;12.70;5.60;;;;;;;0.51;82.34;99290.79;105653;1260;74980;-24
2023/01/14 09:01:51;;;;;;;9.10;4.90;;;;;;;0.29;83.15;99284.06;105871;1254;61759;-24
2023/01/14 09:04:24;;;;;;;8.70;4.90;;;;;;;0.25;83.67;99284.36;105632;1259;62523;-24
2023/01/14 09:17:58;;;;;;;12.10;7.40;;;;;;;0.62;82.33;99280.35;105628;1259;62803;-24
2023/01/14 09:20:29;;;;;;;5.70;3.30;;;;;;;0.44;83.02;99282.67;105522;1254;76218;-24
2023/01/14 09:22:56;;;;;;;11.90;6.30;;;;;;;0.63;83.17;99282.52;105492;1254;76722;-24
2023/01/14 09:25:23;;;;;;;13.90;7.70;;;;;;;0.95;82.54;99280.32;105833;1258;72153;-24
2023/01/14 09:27:53;;;;;;;9.10;5.60;;;;;;;1.14;81.86;99275.30;105703;1259;62592;-24
2023/01/14 09:30:21;;;;;;;12.50;7.90;;;;;;;1.04;81.74;99273.11;105641;1254;63105;-24
2023/01/14 09:32:48;;;;;;;7.20;4.80;;;;;;;0.87;82.09;99274.45;105445;1254;75003;-24
2023/01/14 09:35:15;;;;;;;11.80;5.70;;;;;;;0.58;82.59;99275.69;105521;1257;75789;-24
2023/01/14 09:37:42;;;;;;;8.90;5.30;;;;;;;0.72;83.24;99275.18;105763;1254;74869;-24
2023/01/14 09:40:10;;;;;;;13.20;7.80;;;;;;;1.27;82.16;99276.14;105606;1254;62698;-24
2023/01/14 09:42:40;;;;;;;13.10;6.80;;;;;;;1.40;81.19;99270.52;105668;1254;62942;-25
2023/01/14 09:45:24;;;;;;;10.60;5.30;;;;;;;1.15;81.11;99273.23;105537;1260;76252;-24
2023/01/14 09:47:51;;;;;;;8.90;5.80;;;;;;;0.90;81.92;99273.80;105637;1259;75673;-24
2023/01/14 09:50:44;;;;;;;12.20;6.20;;;;;;;0.65;82.69;99281.40;105575;1254;75137;-24
2023/01/14 09:53:11;;;;;;;8.80;5.50;;;;;;;0.80;83.13;99281.72;105663;1254;61196;-24
2023/01/14 09:55:38;;;;;;;4.40;3.20;;;;;;;1.00;82.70;99281.65;105665;1254;61934;-24
2023/01/14 09:58:12;;;;;;;7.60;4.40;;;;;;;1.08;82.21;99278.96;105622;1254;76115;-24
2023/01/14 10:00:49;;;;;;;11.20;6.00;;;;;;;0.94;82.42;99283.24;105409;1259;76797;-24
2023/01/14 10:03:44;;;;;;;11.00;6.60;;;;;;;0.61;83.26;99282.23;105629;1254;75237;-23
2023/01/14 10:06:13;;;;;;;11.90;7.20;;;;;;;0.77;83.86;99282.20;105592;1260;62356;-23
2023/01/14 10:08:46;;;;;;;16.00;8.60;;;;;;;1.10;82.64;99273.41;105528;1261;62499;-23
2023/01/14 10:11:13;;;;;;;13.50;8.30;;;;;;;1.17;82.40;99274.85;105550;1259;75543;-23
2023/01/14 10:13:47;;;;;;;16.10;7.40;;;;;;;1.09;82.46;99270.03;105744;1254;76768;-23
2023/01/14 10:16:19;;;;;;;13.10;7.00;;;;;;;0.75;83.40;99271.31;105629;1254;75200;-23
2023/01/14 10:19:01;;;;;;;12.80;6.70;;;;;;;0.66;84.04;99273.35;105552;1260;63388;-22
2023/01/14 10:21:39;;;;;;;16.70;9.20;;;;;;;1.26;83.50;99268.49;105391;1260;62488;-23
2023/01/14 10:24:11;;;;;;;17.00;8.00;;;;;;;1.58;81.68;99269.63;105614;1260;75119;-23
2023/01/14 10:26:38;;;;;;;15.00;8.30;;;;;;;1.53;81.53;99266.44;105594;1254;76652;-23
2023/01/14 10:29:20;;;;;;;14.00;7.40;;;;;;;1.43;81.71;99264.05;105613;1259;75169;-22
2023/01/14 10:31:54;;;;;;;17.00;8.70;;;;;;;1.21;81.87;99262.23;105662;1259;61198;-23
2023/01/14 10:34:25;;;;;;;10.60;5.80;;;;;;;1.03;82.51;99259.14;105615;1254;61565;-23
2023/01/14 10:36:52;;;;;;;9.50;6.00;;;;;;;1.42;82.31;99259.83;105650;1263;73705;-23
2023/01/14 10:39:19;;;;;;;13.20;7.00;;;;;;;1.83;80.86;99256.80;105289;1260;75888;-23
2023/01/14 10:41:50;;;;;;;12.50;7.60;;;;;;;1.90;80.46;99254.10;105578;1254;74135;-23
2023/01/14 10:44:25;;;;;;;9.90;5.90;;;;;;;1.78;80.61;99256.16;105529;1255;62832;-22
2023/01/14 10:46:57;;;;;;;12.70;7.20;;;;;;;1.46;81.17;99252.66;105197;1260;61158;-22
2023/01/14 10:49:34;;;;;;;9.60;6.00;;;;;;;1.16;81.94;99254.38;105378;1262;75040;-23
2023/01/14 10:52:02;;;;;;;6.30;3.50;;;;;;;1.06;82.73;99251.99;105304;1259;75699;-22
2023/01/14 10:54:29;;;;;;;9.80;5.30;;;;;;;1.50;82.25;99254.02;105454;1254;75702;-23
2023/01/14 10:56:59;;;;;;;10.70;5.50;;;;;;;1.86;81.02;99253.25;105407;1259;63006;-22
2023/01/14 10:59:58;;;;;;;9.50;5.30;;;;;;;1.74;80.75;99256.30;105313;1254;61743;-23
2023/01/14 11:02:32;;;;;;;10.10;5.70;;;;;;;1.50;81.16;99255.75;105416;1259;75490;-23
2023/01/14 11:05:00;;;;;;;10.70;5.20;;;;;;;1.23;82.02;99256.48;105604;1259;76929;-23
2023/01/14 11:07:33;;;;;;;8.10;5.50;;;;;;;1.02;82.75;99251.65;105289;1262;75251;-22
2023/01/14 11:10:02;;;;;;;9.70;4.30;;;;;;;1.29;83.12;99248.05;105489;1255;61742;-23
2023/01/14 11:12:32;;;;;;;10.30;5.50;;;;;;;1.74;82.09;99250.35;105431;1261;62555;-23
2023/01/14 11:15:00;;;;;;;8.50;4.90;;;;;;;1.73;81.62;99253.46;105192;1254;75149;-23
2023/01/14 11:17:31;;;;;;;10.90;6.20;;;;;;;1.60;81.63;99253.81;105414;1259;76793;-22
2023/01/14 11:20:27;;;;;;;11.00;6.00;;;;;;;1.40;82.01;99250.16;105237;1263;75149;-22
2023/01/14 11:22:59;;;;;;;10.60;5.30;;;;;;;1.15;82.70;99248.77;105455;1259;62213;-23
2023/01/14 11:25:26;;;;;;;9.30;4.90;;;;;;;1.23;83.37;99243.64;105408;1254;63025;-23
2023/01/14 11:27:53;;;;;;;8.80;5.80;;;;;;;1.73;82.30;99238.71;105595;1254;76024;-22
2023/01/14 11:30:21;;;;;;;8.20;5.10;;;;;;;1.91;81.37;99241.55;105475;1254;74495;-23
2023/01/14 11:32:49;;;;;;;9.80;6.40;;;;;;;1.81;81.31;99236.86;105339;1259;74091;-22
2023/01/14 11:35:39;;;;;;;16.70;5.70;;;;;;;1.59;81.62;99236.41;105253;1260;61150;-22
2023/01/14 11:39:35;;;;;;;6.90;4.10;;;;;;;1.20;82.91;99231.27;103071;1286;600160;-21
2023/01/14 11:42:26;;;;;;;11.50;6.30;;;;;;;1.50;82.98;99232.81;104823;1267;61759;-22
2023/01/14 11:44:58;;;;;;;10.40;6.20;;;;;;;1.86;81.81;99236.12;104811;1268;62784;-22
2023/01/14 11:47:26;;;;;;;11.90;5.70;;;;;;;1.87;81.58;99237.79;104785;1274;74476;-21
2023/01/14 11:50:12;;;;;;;9.60;5.10;;;;;;;1.70;81.78;99236.63;104777;1266;76817;-21
2023/01/14 11:52:39;;;;;;;13.00;6.50;;;;;;;1.40;82.23;99235.47;103760;1263;1454167;-22
2023/01/14 11:55:15;;;;;;;5.00;3.30;;;;;;;1.24;83.02;99234.20;104842;1265;62333;-22
2023/01/14 11:57:43;;;;;;;11.10;6.30;;;;;;;1.64;82.89;99240.80;105126;1268;62811;-22
2023/01/14 12:00:11;;;;;;;10.10;6.90;;;;;;;1.99;81.54;99242.56;105146;1269;74688;-22
2023/01/14 12:02:41;;;;;;;11.90;7.00;;;;;;;2.02;81.08;99248.31;104877;1263;76836;-22
2023/01/14 12:05:15;;;;;;;9.30;6.50;;;;;;;1.84;81.29;99250.95;104825;1264;75316;-22
2023/01/14 12:07:49;;;;;;;11.00;6.80;;;;;;;1.50;81.97;99250.42;104546;1271;61173;-22